sensor_id;sensor_type;location;lat;lon;timestamp;P1;durP1;ratioP1;P2;durP2;ratioP2
17363;SDS011;8799;43.594;13.526;2023-04-24T00:00:06;4.97;;;2.30;;
17363;SDS011;8799;43.594;13.526;2023-04-24T00:02:35;5.90;;;2.70;;
17363;SDS011;8799;43.594;13.526;2023-04-24T00:05:07;5.40;;;2.60;;
17363;SDS011;8799;43.594;13.526;2023-04-24T00:07:35;4.70;;;2.53;;
17363;SDS011;8799;43.594;13.526;2023-04-24T00:10:02;5.53;;;2.47;;
17363;SDS011;8799;43.594;13.526;2023-04-24T00:12:45;4.93;;;2.53;;
17363;SDS011;8799;43.594;13.526;2023-04-24T00:15:17;8.97;;;3.03;;
17363;SDS011;8799;43.594;13.526;2023-04-24T00:17:56;5.53;;;2.87;;
17363;SDS011;8799;43.594;13.526;2023-04-24T00:23:07;6.20;;;2.33;;
17363;SDS011;8799;43.594;13.526;2023-04-24T00:25:36;5.13;;;2.43;;
17363;SDS011;8799;43.594;13.526;2023-04-24T00:28:04;5.33;;;2.33;;
17363;SDS011;8799;43.594;13.526;2023-04-24T00:30:32;4.80;;;2.60;;
17363;SDS011;8799;43.594;13.526;2023-04-24T00:33:00;4.00;;;2.13;;
17363;SDS011;8799;43.594;13.526;2023-04-24T00:35:28;5.30;;;3.03;;
17363;SDS011;8799;43.594;13.526;2023-04-24T00:37:57;4.63;;;2.97;;
17363;SDS011;8799;43.594;13.526;2023-04-24T00:40:26;4.60;;;2.77;;
17363;SDS011;8799;43.594;13.526;2023-04-24T00:42:55;6.37;;;3.00;;
17363;SDS011;8799;43.594;13.526;2023-04-24T00:45:23;4.30;;;2.50;;
17363;SDS011;8799;43.594;13.526;2023-04-24T00:47:52;4.67;;;2.67;;
17363;SDS011;8799;43.594;13.526;2023-04-24T00:50:20;6.17;;;2.30;;
17363;SDS011;8799;43.594;13.526;2023-04-24T00:52:48;7.27;;;2.13;;
17363;SDS011;8799;43.594;13.526;2023-04-24T00:55:16;3.43;;;2.20;;
17363;SDS011;8799;43.594;13.526;2023-04-24T00:57:46;3.70;;;2.50;;
17363;SDS011;8799;43.594;13.526;2023-04-24T01:00:15;3.70;;;2.37;;
17363;SDS011;8799;43.594;13.526;2023-04-24T01:02:43;10.77;;;2.53;;
17363;SDS011;8799;43.594;13.526;2023-04-24T01:05:12;4.23;;;2.73;;
17363;SDS011;8799;43.594;13.526;2023-04-24T01:07:43;5.03;;;3.00;;
17363;SDS011;8799;43.594;13.526;2023-04-24T01:10:13;4.90;;;2.30;;
17363;SDS011;8799;43.594;13.526;2023-04-24T01:12:42;3.83;;;2.60;;
17363;SDS011;8799;43.594;13.526;2023-04-24T01:15:12;5.27;;;2.17;;
17363;SDS011;8799;43.594;13.526;2023-04-24T01:17:40;2.63;;;2.07;;
17363;SDS011;8799;43.594;13.526;2023-04-24T01:20:08;5.67;;;2.60;;
17363;SDS011;8799;43.594;13.526;2023-04-24T01:22:39;3.10;;;2.27;;
17363;SDS011;8799;43.594;13.526;2023-04-24T01:25:08;2.30;;;2.00;;
17363;SDS011;8799;43.594;13.526;2023-04-24T01:27:36;2.90;;;1.73;;
17363;SDS011;8799;43.594;13.526;2023-04-24T01:30:05;3.90;;;2.57;;
17363;SDS011;8799;43.594;13.526;2023-04-24T01:32:33;4.03;;;2.57;;
17363;SDS011;8799;43.594;13.526;2023-04-24T01:35:01;3.47;;;2.30;;
17363;SDS011;8799;43.594;13.526;2023-04-24T01:37:29;4.33;;;2.20;;
17363;SDS011;8799;43.594;13.526;2023-04-24T01:39:58;3.83;;;2.50;;
17363;SDS011;8799;43.594;13.526;2023-04-24T01:42:26;3.83;;;2.23;;
17363;SDS011;8799;43.594;13.526;2023-04-24T01:44:55;3.93;;;2.30;;
17363;SDS011;8799;43.594;13.526;2023-04-24T01:47:24;5.17;;;2.27;;
17363;SDS011;8799;43.594;13.526;2023-04-24T01:49:52;4.17;;;2.23;;
17363;SDS011;8799;43.594;13.526;2023-04-24T01:52:20;3.70;;;2.40;;
17363;SDS011;8799;43.594;13.526;2023-04-24T01:54:48;3.43;;;2.10;;
17363;SDS011;8799;43.594;13.526;2023-04-24T01:57:17;3.83;;;2.10;;
17363;SDS011;8799;43.594;13.526;2023-04-24T01:59:46;5.43;;;2.50;;
17363;SDS011;8799;43.594;13.526;2023-04-24T02:02:18;4.00;;;1.97;;
17363;SDS011;8799;43.594;13.526;2023-04-24T02:04:48;5.53;;;2.80;;
17363;SDS011;8799;43.594;13.526;2023-04-24T02:07:16;4.97;;;2.00;;
17363;SDS011;8799;43.594;13.526;2023-04-24T02:09:44;4.90;;;2.40;;
17363;SDS011;8799;43.594;13.526;2023-04-24T02:12:13;6.20;;;2.70;;
17363;SDS011;8799;43.594;13.526;2023-04-24T02:14:42;4.17;;;2.23;;
17363;SDS011;8799;43.594;13.526;2023-04-24T02:17:10;4.50;;;2.43;;
17363;SDS011;8799;43.594;13.526;2023-04-24T02:19:38;3.93;;;2.33;;
17363;SDS011;8799;43.594;13.526;2023-04-24T02:22:06;6.63;;;2.33;;
17363;SDS011;8799;43.594;13.526;2023-04-24T02:24:35;6.13;;;2.17;;
17363;SDS011;8799;43.594;13.526;2023-04-24T02:27:03;3.90;;;1.90;;
17363;SDS011;8799;43.594;13.526;2023-04-24T02:29:31;3.30;;;2.17;;
17363;SDS011;8799;43.594;13.526;2023-04-24T02:32:00;2.90;;;1.83;;
17363;SDS011;8799;43.594;13.526;2023-04-24T02:34:28;2.53;;;1.97;;
17363;SDS011;8799;43.594;13.526;2023-04-24T02:36:56;3.87;;;2.20;;
17363;SDS011;8799;43.594;13.526;2023-04-24T02:39:28;3.30;;;2.00;;
17363;SDS011;8799;43.594;13.526;2023-04-24T02:41:56;4.17;;;2.27;;
17363;SDS011;8799;43.594;13.526;2023-04-24T02:44:24;6.33;;;2.33;;
17363;SDS011;8799;43.594;13.526;2023-04-24T02:46:52;3.03;;;2.10;;
17363;SDS011;8799;43.594;13.526;2023-04-24T02:49:22;2.83;;;2.07;;
17363;SDS011;8799;43.594;13.526;2023-04-24T02:51:50;3.27;;;2.13;;
17363;SDS011;8799;43.594;13.526;2023-04-24T02:54:18;2.50;;;1.90;;
17363;SDS011;8799;43.594;13.526;2023-04-24T02:56:47;3.87;;;2.23;;
17363;SDS011;8799;43.594;13.526;2023-04-24T02:59:15;3.70;;;2.10;;
17363;SDS011;8799;43.594;13.526;2023-04-24T03:01:42;3.60;;;2.07;;
17363;SDS011;8799;43.594;13.526;2023-04-24T03:04:11;3.47;;;2.20;;
17363;SDS011;8799;43.594;13.526;2023-04-24T03:06:40;3.23;;;2.00;;
17363;SDS011;8799;43.594;13.526;2023-04-24T03:09:08;3.77;;;2.20;;
17363;SDS011;8799;43.594;13.526;2023-04-24T03:11:35;5.73;;;2.40;;
17363;SDS011;8799;43.594;13.526;2023-04-24T03:14:02;3.63;;;1.90;;
17363;SDS011;8799;43.594;13.526;2023-04-24T03:16:31;2.73;;;1.90;;
17363;SDS011;8799;43.594;13.526;2023-04-24T03:18:59;2.73;;;2.13;;
17363;SDS011;8799;43.594;13.526;2023-04-24T03:21:27;5.77;;;2.27;;
17363;SDS011;8799;43.594;13.526;2023-04-24T03:23:56;2.97;;;1.90;;
17363;SDS011;8799;43.594;13.526;2023-04-24T03:26:24;3.17;;;2.13;;
17363;SDS011;8799;43.594;13.526;2023-04-24T03:28:52;3.47;;;2.17;;
17363;SDS011;8799;43.594;13.526;2023-04-24T03:31:21;2.80;;;1.90;;
17363;SDS011;8799;43.594;13.526;2023-04-24T03:33:49;2.60;;;1.90;;
17363;SDS011;8799;43.594;13.526;2023-04-24T03:36:17;2.47;;;1.87;;
17363;SDS011;8799;43.594;13.526;2023-04-24T03:38:45;2.73;;;2.07;;
17363;SDS011;8799;43.594;13.526;2023-04-24T03:41:14;3.27;;;2.10;;
17363;SDS011;8799;43.594;13.526;2023-04-24T03:43:42;4.47;;;2.20;;
17363;SDS011;8799;43.594;13.526;2023-04-24T03:46:10;1.83;;;1.73;;
17363;SDS011;8799;43.594;13.526;2023-04-24T03:48:38;6.10;;;2.13;;
17363;SDS011;8799;43.594;13.526;2023-04-24T03:51:05;2.60;;;1.93;;
17363;SDS011;8799;43.594;13.526;2023-04-24T03:53:33;2.90;;;1.80;;
17363;SDS011;8799;43.594;13.526;2023-04-24T03:56:01;3.70;;;2.00;;
17363;SDS011;8799;43.594;13.526;2023-04-24T03:58:31;2.90;;;2.10;;
17363;SDS011;8799;43.594;13.526;2023-04-24T04:00:59;3.67;;;2.27;;
17363;SDS011;8799;43.594;13.526;2023-04-24T04:03:27;2.50;;;1.90;;
17363;SDS011;8799;43.594;13.526;2023-04-24T04:05:55;3.57;;;2.03;;
17363;SDS011;8799;43.594;13.526;2023-04-24T04:08:23;3.70;;;2.47;;
17363;SDS011;8799;43.594;13.526;2023-04-24T04:10:51;3.20;;;2.10;;
17363;SDS011;8799;43.594;13.526;2023-04-24T04:13:19;2.23;;;2.00;;
17363;SDS011;8799;43.594;13.526;2023-04-24T04:15:48;3.23;;;1.97;;
17363;SDS011;8799;43.594;13.526;2023-04-24T04:18:16;2.80;;;2.03;;
17363;SDS011;8799;43.594;13.526;2023-04-24T04:20:44;3.97;;;2.10;;
17363;SDS011;8799;43.594;13.526;2023-04-24T04:23:12;3.43;;;2.23;;
17363;SDS011;8799;43.594;13.526;2023-04-24T04:25:40;3.10;;;2.37;;
17363;SDS011;8799;43.594;13.526;2023-04-24T04:28:08;2.60;;;2.03;;
17363;SDS011;8799;43.594;13.526;2023-04-24T04:30:36;3.33;;;1.90;;
17363;SDS011;8799;43.594;13.526;2023-04-24T04:33:06;3.93;;;2.43;;
17363;SDS011;8799;43.594;13.526;2023-04-24T04:35:34;3.17;;;2.00;;
17363;SDS011;8799;43.594;13.526;2023-04-24T04:38:02;3.97;;;2.23;;
17363;SDS011;8799;43.594;13.526;2023-04-24T04:40:36;3.50;;;2.10;;
17363;SDS011;8799;43.594;13.526;2023-04-24T04:43:03;2.63;;;1.97;;
17363;SDS011;8799;43.594;13.526;2023-04-24T04:45:31;3.97;;;2.30;;
17363;SDS011;8799;43.594;13.526;2023-04-24T04:47:59;3.70;;;2.10;;
17363;SDS011;8799;43.594;13.526;2023-04-24T04:50:29;3.37;;;2.23;;
17363;SDS011;8799;43.594;13.526;2023-04-24T04:52:57;6.70;;;2.70;;
17363;SDS011;8799;43.594;13.526;2023-04-24T04:55:25;3.30;;;2.13;;
17363;SDS011;8799;43.594;13.526;2023-04-24T04:57:53;7.90;;;3.10;;
17363;SDS011;8799;43.594;13.526;2023-04-24T05:00:21;4.70;;;2.20;;
17363;SDS011;8799;43.594;13.526;2023-04-24T05:02:50;3.93;;;2.37;;
17363;SDS011;8799;43.594;13.526;2023-04-24T05:05:17;5.53;;;2.23;;
17363;SDS011;8799;43.594;13.526;2023-04-24T05:07:46;6.67;;;2.60;;
17363;SDS011;8799;43.594;13.526;2023-04-24T05:10:15;10.13;;;2.63;;
17363;SDS011;8799;43.594;13.526;2023-04-24T05:12:43;8.67;;;2.27;;
17363;SDS011;8799;43.594;13.526;2023-04-24T05:15:11;3.43;;;2.30;;
17363;SDS011;8799;43.594;13.526;2023-04-24T05:17:38;4.33;;;2.57;;
17363;SDS011;8799;43.594;13.526;2023-04-24T05:20:07;3.87;;;2.27;;
17363;SDS011;8799;43.594;13.526;2023-04-24T05:22:34;4.57;;;2.30;;
17363;SDS011;8799;43.594;13.526;2023-04-24T05:25:04;9.83;;;2.30;;
17363;SDS011;8799;43.594;13.526;2023-04-24T05:27:32;3.90;;;2.37;;
17363;SDS011;8799;43.594;13.526;2023-04-24T05:30:01;5.53;;;2.30;;
17363;SDS011;8799;43.594;13.526;2023-04-24T05:32:28;12.00;;;3.37;;
17363;SDS011;8799;43.594;13.526;2023-04-24T05:34:56;4.13;;;2.37;;
17363;SDS011;8799;43.594;13.526;2023-04-24T05:37:24;4.90;;;2.60;;
17363;SDS011;8799;43.594;13.526;2023-04-24T05:39:52;7.40;;;2.37;;
17363;SDS011;8799;43.594;13.526;2023-04-24T05:42:22;3.60;;;2.57;;
17363;SDS011;8799;43.594;13.526;2023-04-24T05:44:53;9.77;;;2.60;;
17363;SDS011;8799;43.594;13.526;2023-04-24T05:47:22;4.90;;;2.43;;
17363;SDS011;8799;43.594;13.526;2023-04-24T05:49:51;9.93;;;2.47;;
17363;SDS011;8799;43.594;13.526;2023-04-24T05:52:20;6.23;;;2.53;;
17363;SDS011;8799;43.594;13.526;2023-04-24T05:54:48;3.47;;;2.27;;
17363;SDS011;8799;43.594;13.526;2023-04-24T05:57:16;5.30;;;2.97;;
17363;SDS011;8799;43.594;13.526;2023-04-24T05:59:45;4.43;;;2.10;;
17363;SDS011;8799;43.594;13.526;2023-04-24T06:02:13;5.20;;;2.20;;
17363;SDS011;8799;43.594;13.526;2023-04-24T06:04:41;7.83;;;2.30;;
17363;SDS011;8799;43.594;13.526;2023-04-24T06:07:09;6.67;;;2.30;;
17363;SDS011;8799;43.594;13.526;2023-04-24T06:09:37;10.03;;;2.47;;
17363;SDS011;8799;43.594;13.526;2023-04-24T06:12:06;6.50;;;2.47;;
17363;SDS011;8799;43.594;13.526;2023-04-24T06:14:34;7.50;;;2.37;;
17363;SDS011;8799;43.594;13.526;2023-04-24T06:17:04;8.83;;;2.50;;
17363;SDS011;8799;43.594;13.526;2023-04-24T06:19:32;3.83;;;2.23;;
17363;SDS011;8799;43.594;13.526;2023-04-24T06:22:00;6.33;;;2.40;;
17363;SDS011;8799;43.594;13.526;2023-04-24T06:24:28;8.13;;;3.10;;
17363;SDS011;8799;43.594;13.526;2023-04-24T06:26:55;6.37;;;2.93;;
17363;SDS011;8799;43.594;13.526;2023-04-24T06:29:25;4.93;;;2.30;;
17363;SDS011;8799;43.594;13.526;2023-04-24T06:31:52;10.23;;;2.80;;
17363;SDS011;8799;43.594;13.526;2023-04-24T06:34:22;6.57;;;2.40;;
17363;SDS011;8799;43.594;13.526;2023-04-24T06:36:50;10.63;;;2.60;;
17363;SDS011;8799;43.594;13.526;2023-04-24T06:39:18;3.00;;;2.20;;
17363;SDS011;8799;43.594;13.526;2023-04-24T06:41:47;7.53;;;2.97;;
17363;SDS011;8799;43.594;13.526;2023-04-24T06:44:14;6.47;;;2.80;;
17363;SDS011;8799;43.594;13.526;2023-04-24T06:46:42;10.03;;;2.43;;
17363;SDS011;8799;43.594;13.526;2023-04-24T06:49:11;6.60;;;2.50;;
17363;SDS011;8799;43.594;13.526;2023-04-24T06:51:42;12.57;;;3.07;;
17363;SDS011;8799;43.594;13.526;2023-04-24T06:54:11;8.67;;;2.53;;
17363;SDS011;8799;43.594;13.526;2023-04-24T06:56:38;8.07;;;2.73;;
17363;SDS011;8799;43.594;13.526;2023-04-24T06:59:06;7.77;;;2.63;;
17363;SDS011;8799;43.594;13.526;2023-04-24T07:01:34;8.27;;;2.60;;
17363;SDS011;8799;43.594;13.526;2023-04-24T07:04:02;6.13;;;2.40;;
17363;SDS011;8799;43.594;13.526;2023-04-24T07:06:29;3.73;;;2.10;;
17363;SDS011;8799;43.594;13.526;2023-04-24T07:08:59;6.50;;;2.60;;
17363;SDS011;8799;43.594;13.526;2023-04-24T07:11:26;5.67;;;2.50;;
17363;SDS011;8799;43.594;13.526;2023-04-24T07:13:55;5.50;;;3.00;;
17363;SDS011;8799;43.594;13.526;2023-04-24T07:16:23;7.13;;;2.30;;
17363;SDS011;8799;43.594;13.526;2023-04-24T07:18:50;6.50;;;2.53;;
17363;SDS011;8799;43.594;13.526;2023-04-24T07:21:19;5.73;;;2.40;;
17363;SDS011;8799;43.594;13.526;2023-04-24T07:23:48;6.40;;;2.73;;
17363;SDS011;8799;43.594;13.526;2023-04-24T07:26:16;8.23;;;2.73;;
17363;SDS011;8799;43.594;13.526;2023-04-24T07:28:44;7.50;;;2.33;;
17363;SDS011;8799;43.594;13.526;2023-04-24T07:31:13;6.47;;;2.30;;
17363;SDS011;8799;43.594;13.526;2023-04-24T07:33:41;7.37;;;2.67;;
17363;SDS011;8799;43.594;13.526;2023-04-24T07:36:09;7.30;;;2.40;;
17363;SDS011;8799;43.594;13.526;2023-04-24T07:38:41;2.70;;;1.90;;
17363;SDS011;8799;43.594;13.526;2023-04-24T07:41:09;10.73;;;2.47;;
17363;SDS011;8799;43.594;13.526;2023-04-24T07:43:38;6.93;;;2.43;;
17363;SDS011;8799;43.594;13.526;2023-04-24T07:46:06;5.40;;;2.27;;
17363;SDS011;8799;43.594;13.526;2023-04-24T07:48:36;7.10;;;2.53;;
17363;SDS011;8799;43.594;13.526;2023-04-24T07:51:05;5.47;;;2.30;;
17363;SDS011;8799;43.594;13.526;2023-04-24T07:53:35;5.17;;;2.50;;
17363;SDS011;8799;43.594;13.526;2023-04-24T07:56:02;6.67;;;2.43;;
17363;SDS011;8799;43.594;13.526;2023-04-24T07:58:30;5.43;;;2.43;;
17363;SDS011;8799;43.594;13.526;2023-04-24T08:01:00;8.33;;;2.80;;
17363;SDS011;8799;43.594;13.526;2023-04-24T08:03:44;4.80;;;2.20;;
17363;SDS011;8799;43.594;13.526;2023-04-24T08:06:12;5.47;;;2.10;;
17363;SDS011;8799;43.594;13.526;2023-04-24T08:08:40;4.90;;;2.43;;
17363;SDS011;8799;43.594;13.526;2023-04-24T08:11:10;5.67;;;2.20;;
17363;SDS011;8799;43.594;13.526;2023-04-24T08:13:42;7.37;;;2.67;;
17363;SDS011;8799;43.594;13.526;2023-04-24T08:16:13;6.40;;;2.53;;
17363;SDS011;8799;43.594;13.526;2023-04-24T08:18:51;4.63;;;2.17;;
17363;SDS011;8799;43.594;13.526;2023-04-24T08:21:20;7.47;;;2.40;;
17363;SDS011;8799;43.594;13.526;2023-04-24T08:23:49;4.93;;;2.13;;
17363;SDS011;8799;43.594;13.526;2023-04-24T08:26:17;11.97;;;2.40;;
17363;SDS011;8799;43.594;13.526;2023-04-24T08:28:45;9.17;;;2.23;;
17363;SDS011;8799;43.594;13.526;2023-04-24T08:31:15;4.77;;;2.00;;
17363;SDS011;8799;43.594;13.526;2023-04-24T08:33:43;4.57;;;1.93;;
17363;SDS011;8799;43.594;13.526;2023-04-24T08:36:11;4.07;;;2.20;;
17363;SDS011;8799;43.594;13.526;2023-04-24T08:38:38;5.53;;;2.20;;
17363;SDS011;8799;43.594;13.526;2023-04-24T08:41:06;3.23;;;1.77;;
17363;SDS011;8799;43.594;13.526;2023-04-24T08:43:36;3.47;;;2.33;;
17363;SDS011;8799;43.594;13.526;2023-04-24T08:46:05;5.20;;;2.00;;
17363;SDS011;8799;43.594;13.526;2023-04-24T08:48:35;3.30;;;2.00;;
17363;SDS011;8799;43.594;13.526;2023-04-24T08:51:03;5.43;;;2.27;;
17363;SDS011;8799;43.594;13.526;2023-04-24T08:53:35;6.47;;;2.20;;
17363;SDS011;8799;43.594;13.526;2023-04-24T08:56:03;7.73;;;2.03;;
17363;SDS011;8799;43.594;13.526;2023-04-24T08:58:31;4.10;;;1.97;;
17363;SDS011;8799;43.594;13.526;2023-04-24T09:01:00;3.37;;;2.13;;
17363;SDS011;8799;43.594;13.526;2023-04-24T09:03:28;8.23;;;2.00;;
17363;SDS011;8799;43.594;13.526;2023-04-24T09:05:58;5.73;;;2.13;;
17363;SDS011;8799;43.594;13.526;2023-04-24T09:08:28;4.57;;;1.77;;
17363;SDS011;8799;43.594;13.526;2023-04-24T09:10:57;3.43;;;1.80;;
17363;SDS011;8799;43.594;13.526;2023-04-24T09:13:27;11.47;;;1.80;;
17363;SDS011;8799;43.594;13.526;2023-04-24T09:15:55;2.37;;;1.70;;
17363;SDS011;8799;43.594;13.526;2023-04-24T09:18:25;4.60;;;2.03;;
17363;SDS011;8799;43.594;13.526;2023-04-24T09:21:07;3.50;;;1.97;;
17363;SDS011;8799;43.594;13.526;2023-04-24T09:23:36;7.80;;;1.97;;
17363;SDS011;8799;43.594;13.526;2023-04-24T09:26:05;4.50;;;2.00;;
17363;SDS011;8799;43.594;13.526;2023-04-24T09:28:34;3.90;;;1.97;;
17363;SDS011;8799;43.594;13.526;2023-04-24T09:31:08;2.93;;;1.87;;
17363;SDS011;8799;43.594;13.526;2023-04-24T09:33:39;4.10;;;1.80;;
17363;SDS011;8799;43.594;13.526;2023-04-24T09:36:08;2.80;;;1.63;;
17363;SDS011;8799;43.594;13.526;2023-04-24T09:38:38;5.50;;;2.10;;
17363;SDS011;8799;43.594;13.526;2023-04-24T09:41:06;4.50;;;1.80;;
17363;SDS011;8799;43.594;13.526;2023-04-24T09:43:35;4.43;;;1.77;;
17363;SDS011;8799;43.594;13.526;2023-04-24T09:46:04;5.40;;;1.77;;
17363;SDS011;8799;43.594;13.526;2023-04-24T09:48:35;2.63;;;1.60;;
17363;SDS011;8799;43.594;13.526;2023-04-24T09:51:03;5.17;;;1.87;;
17363;SDS011;8799;43.594;13.526;2023-04-24T09:53:37;6.20;;;1.90;;
17363;SDS011;8799;43.594;13.526;2023-04-24T09:56:07;1.97;;;1.60;;
17363;SDS011;8799;43.594;13.526;2023-04-24T09:58:36;2.97;;;1.70;;
17363;SDS011;8799;43.594;13.526;2023-04-24T10:01:04;6.17;;;1.73;;
17363;SDS011;8799;43.594;13.526;2023-04-24T10:03:32;4.07;;;1.90;;
17363;SDS011;8799;43.594;13.526;2023-04-24T10:06:01;3.50;;;1.60;;
17363;SDS011;8799;43.594;13.526;2023-04-24T10:08:33;4.33;;;2.00;;
17363;SDS011;8799;43.594;13.526;2023-04-24T10:11:03;2.87;;;1.53;;
17363;SDS011;8799;43.594;13.526;2023-04-24T10:13:32;4.97;;;1.80;;
17363;SDS011;8799;43.594;13.526;2023-04-24T10:16:00;2.23;;;1.60;;
17363;SDS011;8799;43.594;13.526;2023-04-24T10:18:30;3.87;;;1.90;;
17363;SDS011;8799;43.594;13.526;2023-04-24T10:20:59;5.13;;;1.90;;
17363;SDS011;8799;43.594;13.526;2023-04-24T10:23:28;3.07;;;1.40;;
17363;SDS011;8799;43.594;13.526;2023-04-24T10:25:57;3.77;;;1.90;;
17363;SDS011;8799;43.594;13.526;2023-04-24T10:28:28;1.87;;;1.47;;
17363;SDS011;8799;43.594;13.526;2023-04-24T10:30:57;5.90;;;1.40;;
17363;SDS011;8799;43.594;13.526;2023-04-24T10:33:26;3.40;;;1.87;;
17363;SDS011;8799;43.594;13.526;2023-04-24T10:35:55;6.73;;;1.90;;
17363;SDS011;8799;43.594;13.526;2023-04-24T10:38:24;2.27;;;1.53;;
17363;SDS011;8799;43.594;13.526;2023-04-24T10:40:57;2.40;;;1.53;;
17363;SDS011;8799;43.594;13.526;2023-04-24T10:43:36;3.13;;;1.60;;
17363;SDS011;8799;43.594;13.526;2023-04-24T10:46:07;6.57;;;2.23;;
17363;SDS011;8799;43.594;13.526;2023-04-24T10:48:35;3.40;;;1.80;;
17363;SDS011;8799;43.594;13.526;2023-04-24T10:51:10;3.57;;;1.57;;
17363;SDS011;8799;43.594;13.526;2023-04-24T10:53:39;2.40;;;1.27;;
17363;SDS011;8799;43.594;13.526;2023-04-24T10:56:10;2.80;;;1.70;;
17363;SDS011;8799;43.594;13.526;2023-04-24T10:58:40;3.13;;;1.60;;
17363;SDS011;8799;43.594;13.526;2023-04-24T11:01:11;4.13;;;1.90;;
17363;SDS011;8799;43.594;13.526;2023-04-24T11:03:54;3.73;;;1.67;;
17363;SDS011;8799;43.594;13.526;2023-04-24T11:06:28;4.37;;;1.90;;
17363;SDS011;8799;43.594;13.526;2023-04-24T11:09:07;1.87;;;1.50;;
17363;SDS011;8799;43.594;13.526;2023-04-24T11:11:38;3.37;;;1.93;;
17363;SDS011;8799;43.594;13.526;2023-04-24T11:14:13;6.10;;;2.33;;
17363;SDS011;8799;43.594;13.526;2023-04-24T11:16:42;3.27;;;2.37;;
17363;SDS011;8799;43.594;13.526;2023-04-24T11:19:19;3.57;;;2.20;;
17363;SDS011;8799;43.594;13.526;2023-04-24T11:21:54;6.70;;;2.47;;
17363;SDS011;8799;43.594;13.526;2023-04-24T11:27:06;4.80;;;2.50;;
17363;SDS011;8799;43.594;13.526;2023-04-24T11:29:41;3.87;;;2.57;;
17363;SDS011;8799;43.594;13.526;2023-04-24T11:32:17;4.03;;;2.47;;
17363;SDS011;8799;43.594;13.526;2023-04-24T11:34:53;5.00;;;2.23;;
17363;SDS011;8799;43.594;13.526;2023-04-24T11:37:22;7.23;;;2.87;;
17363;SDS011;8799;43.594;13.526;2023-04-24T11:39:52;7.70;;;2.70;;
17363;SDS011;8799;43.594;13.526;2023-04-24T11:42:21;4.77;;;2.70;;
17363;SDS011;8799;43.594;13.526;2023-04-24T11:44:53;7.70;;;2.73;;
17363;SDS011;8799;43.594;13.526;2023-04-24T11:47:28;9.37;;;2.73;;
17363;SDS011;8799;43.594;13.526;2023-04-24T11:49:59;5.40;;;2.83;;
17363;SDS011;8799;43.594;13.526;2023-04-24T11:52:26;5.00;;;2.97;;
17363;SDS011;8799;43.594;13.526;2023-04-24T11:54:54;7.87;;;2.60;;
17363;SDS011;8799;43.594;13.526;2023-04-24T11:57:23;5.00;;;2.77;;
17363;SDS011;8799;43.594;13.526;2023-04-24T11:59:55;6.17;;;3.00;;
17363;SDS011;8799;43.594;13.526;2023-04-24T12:02:23;7.10;;;2.93;;
17363;SDS011;8799;43.594;13.526;2023-04-24T12:04:53;6.17;;;2.90;;
17363;SDS011;8799;43.594;13.526;2023-04-24T12:07:22;6.00;;;2.90;;
17363;SDS011;8799;43.594;13.526;2023-04-24T12:09:54;8.17;;;2.77;;
17363;SDS011;8799;43.594;13.526;2023-04-24T12:12:24;5.83;;;3.03;;
17363;SDS011;8799;43.594;13.526;2023-04-24T12:14:55;4.37;;;2.60;;
17363;SDS011;8799;43.594;13.526;2023-04-24T12:17:24;6.03;;;2.47;;
17363;SDS011;8799;43.594;13.526;2023-04-24T12:19:56;3.87;;;2.30;;
17363;SDS011;8799;43.594;13.526;2023-04-24T12:22:25;5.77;;;2.97;;
17363;SDS011;8799;43.594;13.526;2023-04-24T12:24:58;6.33;;;3.07;;
17363;SDS011;8799;43.594;13.526;2023-04-24T12:27:29;5.20;;;2.87;;
17363;SDS011;8799;43.594;13.526;2023-04-24T12:30:00;3.30;;;2.03;;
17363;SDS011;8799;43.594;13.526;2023-04-24T12:32:29;5.47;;;2.47;;
17363;SDS011;8799;43.594;13.526;2023-04-24T12:34:57;7.47;;;2.97;;
17363;SDS011;8799;43.594;13.526;2023-04-24T12:37:25;6.17;;;2.23;;
17363;SDS011;8799;43.594;13.526;2023-04-24T12:40:00;8.23;;;2.73;;
17363;SDS011;8799;43.594;13.526;2023-04-24T12:42:31;5.00;;;2.53;;
17363;SDS011;8799;43.594;13.526;2023-04-24T12:45:01;3.87;;;2.20;;
17363;SDS011;8799;43.594;13.526;2023-04-24T12:47:32;5.97;;;2.33;;
17363;SDS011;8799;43.594;13.526;2023-04-24T12:50:01;5.87;;;2.13;;
17363;SDS011;8799;43.594;13.526;2023-04-24T12:52:30;6.10;;;2.60;;
17363;SDS011;8799;43.594;13.526;2023-04-24T12:54:59;6.83;;;2.83;;
17363;SDS011;8799;43.594;13.526;2023-04-24T12:57:28;2.87;;;2.07;;
17363;SDS011;8799;43.594;13.526;2023-04-24T12:59:59;4.67;;;2.40;;
17363;SDS011;8799;43.594;13.526;2023-04-24T13:02:28;3.70;;;2.20;;
17363;SDS011;8799;43.594;13.526;2023-04-24T13:04:57;3.53;;;2.17;;
17363;SDS011;8799;43.594;13.526;2023-04-24T13:07:26;5.77;;;2.97;;
17363;SDS011;8799;43.594;13.526;2023-04-24T13:09:54;7.60;;;2.00;;
17363;SDS011;8799;43.594;13.526;2023-04-24T13:12:23;7.60;;;2.00;;
17363;SDS011;8799;43.594;13.526;2023-04-24T13:14:52;3.07;;;2.00;;
17363;SDS011;8799;43.594;13.526;2023-04-24T13:20:08;5.07;;;2.10;;
17363;SDS011;8799;43.594;13.526;2023-04-24T13:22:36;5.33;;;2.10;;
17363;SDS011;8799;43.594;13.526;2023-04-24T13:25:04;4.50;;;1.80;;
17363;SDS011;8799;43.594;13.526;2023-04-24T13:27:33;7.57;;;2.17;;
17363;SDS011;8799;43.594;13.526;2023-04-24T13:30:02;4.13;;;1.87;;
17363;SDS011;8799;43.594;13.526;2023-04-24T13:32:31;3.60;;;1.87;;
17363;SDS011;8799;43.594;13.526;2023-04-24T13:35:02;3.90;;;2.00;;
17363;SDS011;8799;43.594;13.526;2023-04-24T13:37:30;3.40;;;1.97;;
17363;SDS011;8799;43.594;13.526;2023-04-24T13:39:58;7.50;;;2.07;;
17363;SDS011;8799;43.594;13.526;2023-04-24T13:42:27;6.90;;;1.80;;
17363;SDS011;8799;43.594;13.526;2023-04-24T13:44:54;6.67;;;2.10;;
17363;SDS011;8799;43.594;13.526;2023-04-24T13:47:22;3.83;;;2.10;;
17363;SDS011;8799;43.594;13.526;2023-04-24T13:49:54;5.40;;;2.17;;
17363;SDS011;8799;43.594;13.526;2023-04-24T13:52:24;3.60;;;1.57;;
17363;SDS011;8799;43.594;13.526;2023-04-24T13:54:52;4.63;;;1.93;;
17363;SDS011;8799;43.594;13.526;2023-04-24T13:57:21;2.93;;;1.87;;
17363;SDS011;8799;43.594;13.526;2023-04-24T13:59:49;5.50;;;1.73;;
17363;SDS011;8799;43.594;13.526;2023-04-24T14:02:17;6.87;;;2.43;;
17363;SDS011;8799;43.594;13.526;2023-04-24T14:04:45;4.30;;;2.30;;
17363;SDS011;8799;43.594;13.526;2023-04-24T14:07:16;3.07;;;1.80;;
17363;SDS011;8799;43.594;13.526;2023-04-24T14:09:46;2.53;;;1.57;;
17363;SDS011;8799;43.594;13.526;2023-04-24T14:12:14;7.07;;;2.07;;
17363;SDS011;8799;43.594;13.526;2023-04-24T14:14:44;5.53;;;2.10;;
17363;SDS011;8799;43.594;13.526;2023-04-24T14:17:12;5.67;;;1.63;;
17363;SDS011;8799;43.594;13.526;2023-04-24T14:19:40;3.60;;;2.03;;
17363;SDS011;8799;43.594;13.526;2023-04-24T14:22:09;1.77;;;1.60;;
17363;SDS011;8799;43.594;13.526;2023-04-24T14:24:37;3.67;;;1.53;;
17363;SDS011;8799;43.594;13.526;2023-04-24T14:27:06;5.10;;;1.87;;
17363;SDS011;8799;43.594;13.526;2023-04-24T14:29:34;2.63;;;1.80;;
17363;SDS011;8799;43.594;13.526;2023-04-24T14:32:02;4.33;;;1.90;;
17363;SDS011;8799;43.594;13.526;2023-04-24T14:34:30;4.17;;;1.70;;
17363;SDS011;8799;43.594;13.526;2023-04-24T14:36:58;2.90;;;1.87;;
17363;SDS011;8799;43.594;13.526;2023-04-24T14:39:27;3.83;;;2.00;;
17363;SDS011;8799;43.594;13.526;2023-04-24T14:41:55;4.90;;;1.90;;
17363;SDS011;8799;43.594;13.526;2023-04-24T14:44:24;5.27;;;2.20;;
17363;SDS011;8799;43.594;13.526;2023-04-24T14:46:51;5.07;;;1.67;;
17363;SDS011;8799;43.594;13.526;2023-04-24T14:49:19;4.57;;;1.60;;
17363;SDS011;8799;43.594;13.526;2023-04-24T14:51:47;3.60;;;2.10;;
17363;SDS011;8799;43.594;13.526;2023-04-24T14:54:16;5.33;;;1.60;;
17363;SDS011;8799;43.594;13.526;2023-04-24T14:56:44;4.63;;;1.70;;
17363;SDS011;8799;43.594;13.526;2023-04-24T14:59:12;3.67;;;1.50;;
17363;SDS011;8799;43.594;13.526;2023-04-24T15:01:43;4.77;;;1.63;;
17363;SDS011;8799;43.594;13.526;2023-04-24T15:04:11;4.83;;;2.00;;
17363;SDS011;8799;43.594;13.526;2023-04-24T15:06:39;4.80;;;2.10;;